createdAt,value
2017-07-16T00:00:00.212Z,16.82
2017-07-16T00:02:31.834Z,16.30
2017-07-16T00:05:03.399Z,15.73
2017-07-16T00:07:36.281Z,15.95
2017-07-16T00:10:08.277Z,16.01
2017-07-16T00:12:43.122Z,15.66
2017-07-16T00:15:14.545Z,15.68
2017-07-16T00:17:46.592Z,15.65
2017-07-16T00:20:18.606Z,16.34
2017-07-16T00:22:51.323Z,15.87
2017-07-16T00:25:23.469Z,16.21
2017-07-16T00:27:54.846Z,15.68
2017-07-16T00:30:26.251Z,15.47
2017-07-16T00:32:59.698Z,15.18
2017-07-16T00:35:32.480Z,15.78
2017-07-16T00:38:04.283Z,15.67
2017-07-16T00:40:37.866Z,15.53
2017-07-16T00:43:09.285Z,15.38
2017-07-16T00:45:44.351Z,14.94
2017-07-16T00:48:15.807Z,15.13
2017-07-16T00:50:47.434Z,15.50
2017-07-16T00:53:19.065Z,14.87
2017-07-16T00:55:50.755Z,14.74
2017-07-16T00:58:22.666Z,14.97
2017-07-16T01:00:55.173Z,15.28
2017-07-16T01:03:26.590Z,15.08
2017-07-16T01:05:58.308Z,14.76
2017-07-16T01:08:29.728Z,15.21
2017-07-16T01:11:01.116Z,15.13
2017-07-16T01:13:34.208Z,15.38
2017-07-16T01:16:06.026Z,15.63
2017-07-16T01:18:41.027Z,15.88
2017-07-16T01:21:13.326Z,15.73
2017-07-16T01:23:45.325Z,15.34
2017-07-16T01:26:17.323Z,15.09
2017-07-16T01:28:48.760Z,14.92
2017-07-16T01:31:20.514Z,15.09
2017-07-16T01:33:52.901Z,14.97
2017-07-16T01:36:24.862Z,14.61
2017-07-16T01:38:56.321Z,14.84
2017-07-16T01:41:28.795Z,15.36
2017-07-16T01:44:00.410Z,15.92
2017-07-16T01:46:32.266Z,16.16
2017-07-16T01:49:03.808Z,16.13
2017-07-16T01:51:38.390Z,15.26
2017-07-16T01:54:10.068Z,15.02
2017-07-16T01:56:42.686Z,15.27
2017-07-16T01:59:14.296Z,15.10
2017-07-16T02:01:45.549Z,15.19
2017-07-16T02:04:17.095Z,14.90
2017-07-16T02:06:48.838Z,15.47
2017-07-16T02:09:21.270Z,15.25
2017-07-16T02:11:52.534Z,14.99
2017-07-16T02:14:24.048Z,15.26
2017-07-16T02:16:56.330Z,14.91
2017-07-16T02:19:27.916Z,14.80
2017-07-16T02:22:00.354Z,14.82
2017-07-16T02:24:31.971Z,14.78
2017-07-16T02:27:04.954Z,14.90
2017-07-16T02:29:40.506Z,15.19
2017-07-16T02:32:12.465Z,15.69
2017-07-16T02:34:44.079Z,15.96
2017-07-16T02:37:15.825Z,16.36
2017-07-16T02:39:47.286Z,15.79
2017-07-16T02:42:18.901Z,15.38
2017-07-16T02:44:50.547Z,15.28
2017-07-16T02:47:22.240Z,15.55
2017-07-16T02:49:54.010Z,15.31
2017-07-16T02:52:25.650Z,15.64
2017-07-16T02:54:57.542Z,15.19
2017-07-16T02:57:29.283Z,15.35
2017-07-16T03:00:00.592Z,15.17
2017-07-16T03:02:32.614Z,15.58
2017-07-16T03:05:04.776Z,15.52
2017-07-16T03:07:39.868Z,15.68
2017-07-16T03:10:11.621Z,15.49
2017-07-16T03:12:44.120Z,15.62
2017-07-16T03:15:15.914Z,15.81
2017-07-16T03:17:47.756Z,15.06
2017-07-16T03:20:19.547Z,15.56
2017-07-16T03:22:52.067Z,14.60
2017-07-16T03:25:31.655Z,14.82
2017-07-16T03:28:03.556Z,14.93
2017-07-16T03:30:37.917Z,15.65
2017-07-16T03:33:09.728Z,15.57
2017-07-16T03:35:46.427Z,14.31
2017-07-16T03:38:18.261Z,15.32
2017-07-16T03:40:49.745Z,15.14
2017-07-16T03:43:22.164Z,15.13
2017-07-16T03:45:53.720Z,15.33
2017-07-16T03:48:25.434Z,14.93
2017-07-16T03:50:57.516Z,14.94
2017-07-16T03:53:29.201Z,15.31
2017-07-16T03:56:01.278Z,15.59
2017-07-16T03:58:33.171Z,15.85
2017-07-16T04:01:04.921Z,15.80
2017-07-16T04:03:39.469Z,15.47
2017-07-16T04:06:11.404Z,16.06
2017-07-16T04:08:44.246Z,15.91
2017-07-16T04:11:16.926Z,16.22
2017-07-16T04:13:49.322Z,16.29
2017-07-16T04:16:21.002Z,16.11
2017-07-16T04:18:52.916Z,15.81
2017-07-16T04:21:24.906Z,15.80
2017-07-16T04:23:56.507Z,15.80
2017-07-16T04:26:28.312Z,16.16
2017-07-16T04:29:00.064Z,15.97
2017-07-16T04:31:32.513Z,16.03
2017-07-16T04:34:04.313Z,15.91
2017-07-16T04:36:39.186Z,15.61
2017-07-16T04:39:11.267Z,15.77
2017-07-16T04:41:44.148Z,16.12
2017-07-16T04:44:15.817Z,16.03
2017-07-16T04:46:47.782Z,15.99
2017-07-16T04:49:19.415Z,16.04
2017-07-16T04:51:50.946Z,15.98
2017-07-16T04:54:22.716Z,16.24
2017-07-16T04:56:54.096Z,16.20
2017-07-16T04:59:27.116Z,16.44
2017-07-16T05:02:00.450Z,16.30
2017-07-16T05:04:33.739Z,16.44
2017-07-16T05:07:08.515Z,16.56
2017-07-16T05:09:48.992Z,16.62
2017-07-16T05:12:20.621Z,16.61
2017-07-16T05:14:52.421Z,16.85
2017-07-16T05:17:24.521Z,16.82
2017-07-16T05:19:56.787Z,17.15
2017-07-16T05:22:28.549Z,17.30
2017-07-16T05:25:01.298Z,17.27
2017-07-16T05:27:33.214Z,17.60
2017-07-16T05:30:06.070Z,18.01
2017-07-16T05:32:41.956Z,17.76
2017-07-16T05:35:14.665Z,17.91
2017-07-16T05:37:47.036Z,17.83
2017-07-16T05:40:18.394Z,18.01
2017-07-16T05:42:50.018Z,17.77
2017-07-16T05:45:22.304Z,17.96
2017-07-16T05:47:53.739Z,18.50
2017-07-16T05:50:26.101Z,19.15
2017-07-16T05:52:58.295Z,20.00
2017-07-16T05:55:29.561Z,20.57
2017-07-16T05:58:01.955Z,20.77
2017-07-16T06:00:33.398Z,20.54
2017-07-16T06:03:05.312Z,20.74
2017-07-16T06:05:39.280Z,20.20
2017-07-16T06:08:10.451Z,21.29
2017-07-16T06:10:42.104Z,21.67
2017-07-16T06:13:14.486Z,22.65
2017-07-16T06:15:46.561Z,23.03
2017-07-16T06:18:18.209Z,22.54
2017-07-16T06:20:49.666Z,23.88
2017-07-16T06:23:21.584Z,23.82
2017-07-16T06:25:53.225Z,24.02
2017-07-16T06:28:24.712Z,24.27
2017-07-16T06:30:56.967Z,23.77
2017-07-16T06:33:28.429Z,22.81
2017-07-16T06:36:00.158Z,23.54
2017-07-16T06:38:32.088Z,23.54
2017-07-16T06:41:09.105Z,24.00
2017-07-16T06:43:42.459Z,24.42
2017-07-16T06:46:14.481Z,26.12
2017-07-16T06:48:47.088Z,25.27
2017-07-16T06:51:21.684Z,24.81
2017-07-16T06:53:55.046Z,24.26
2017-07-16T06:56:26.930Z,24.30
2017-07-16T06:58:59.093Z,24.54
2017-07-16T07:01:31.374Z,25.21
2017-07-16T07:04:03.002Z,25.11
2017-07-16T07:06:36.387Z,24.20
2017-07-16T07:09:09.744Z,23.54
2017-07-16T07:11:44.523Z,23.23
2017-07-16T07:14:17.288Z,24.07
2017-07-16T07:16:50.201Z,24.21
2017-07-16T07:19:22.966Z,24.74
2017-07-16T07:21:54.899Z,24.56
2017-07-16T07:24:27.572Z,24.63
2017-07-16T07:27:02.262Z,23.74
2017-07-16T07:29:33.797Z,25.70
2017-07-16T07:32:05.769Z,26.52
2017-07-16T07:34:39.386Z,28.12
2017-07-16T07:37:11.915Z,27.42
2017-07-16T07:39:44.290Z,26.94
2017-07-16T07:42:16.430Z,26.75
2017-07-16T07:44:47.953Z,26.95
2017-07-16T07:47:19.509Z,28.67
2017-07-16T07:49:50.751Z,29.40
2017-07-16T07:52:22.244Z,28.86
2017-07-16T07:54:54.734Z,28.24
2017-07-16T07:57:26.305Z,28.13
2017-07-16T07:59:58.025Z,26.60
2017-07-16T08:02:29.433Z,26.46
2017-07-16T08:05:01.129Z,28.00
2017-07-16T08:07:38.759Z,26.99
2017-07-16T08:10:11.185Z,28.12
2017-07-16T08:12:42.848Z,26.54
2017-07-16T08:15:15.195Z,25.98
2017-07-16T08:17:48.156Z,25.84
2017-07-16T08:20:22.638Z,26.94
2017-07-16T08:22:54.523Z,28.00
2017-07-16T08:25:27.205Z,28.35
2017-07-16T08:27:59.232Z,28.24
2017-07-16T08:30:32.245Z,26.77
2017-07-16T08:33:04.902Z,27.15
2017-07-16T08:35:38.164Z,27.16
2017-07-16T08:38:09.506Z,26.64
2017-07-16T08:40:42.355Z,26.68
2017-07-16T08:43:13.577Z,27.62
2017-07-16T08:45:45.106Z,28.18
2017-07-16T08:48:16.844Z,27.02
2017-07-16T08:50:51.767Z,26.60
2017-07-16T08:53:23.316Z,28.10
2017-07-16T08:55:55.062Z,28.75
2017-07-16T08:58:26.314Z,28.15
2017-07-16T09:00:57.788Z,26.94
2017-07-16T09:03:29.500Z,27.25
2017-07-16T09:06:12.180Z,28.22
2017-07-16T09:08:43.819Z,29.01
2017-07-16T09:11:14.989Z,28.53
2017-07-16T09:13:46.357Z,29.35
2017-07-16T09:16:18.093Z,30.21
2017-07-16T09:18:49.426Z,30.28
2017-07-16T09:21:20.991Z,30.43
2017-07-16T09:23:52.858Z,29.83
2017-07-16T09:26:24.394Z,27.78
2017-07-16T09:28:56.149Z,27.10
2017-07-16T09:31:27.515Z,27.19
2017-07-16T09:33:59.764Z,27.69
2017-07-16T09:36:31.353Z,27.53
2017-07-16T09:39:02.747Z,28.21
2017-07-16T09:41:34.273Z,29.12
2017-07-16T09:44:08.589Z,28.59
2017-07-16T09:46:42.799Z,27.92
2017-07-16T09:49:14.067Z,28.16
2017-07-16T09:51:45.622Z,28.09
2017-07-16T09:54:17.208Z,28.17
2017-07-16T09:56:48.723Z,28.29
2017-07-16T09:59:20.168Z,28.68
2017-07-16T10:01:51.361Z,27.07
2017-07-16T10:04:22.940Z,26.00
2017-07-16T10:06:54.197Z,26.32
2017-07-16T10:09:26.524Z,26.51
2017-07-16T10:11:58.144Z,26.25
2017-07-16T10:14:30.790Z,26.17
2017-07-16T10:17:02.652Z,26.73
2017-07-16T10:19:34.065Z,27.44
2017-07-16T10:22:05.543Z,27.95
2017-07-16T10:24:39.619Z,28.64
2017-07-16T10:27:11.752Z,29.85
2017-07-16T10:29:43.047Z,29.31
2017-07-16T10:32:14.739Z,29.15
2017-07-16T10:34:46.360Z,29.84
2017-07-16T10:37:17.762Z,30.20
2017-07-16T10:39:49.595Z,29.68
2017-07-16T10:42:21.132Z,31.00
2017-07-16T10:44:52.671Z,27.36
2017-07-16T10:47:23.971Z,27.08
2017-07-16T10:49:55.325Z,27.82
2017-07-16T10:52:27.362Z,28.26
2017-07-16T10:54:58.557Z,29.52
2017-07-16T10:57:30.091Z,29.56
2017-07-16T11:00:02.356Z,30.03
2017-07-16T11:02:33.601Z,30.12
2017-07-16T11:05:06.273Z,29.04
2017-07-16T11:07:40.832Z,28.49
2017-07-16T11:10:12.214Z,27.71
2017-07-16T11:12:44.234Z,28.18
2017-07-16T11:15:15.409Z,28.35
2017-07-16T11:17:47.017Z,28.12
2017-07-16T11:20:18.682Z,29.20
2017-07-16T11:22:50.244Z,28.86
2017-07-16T11:25:21.960Z,29.12
2017-07-16T11:27:53.328Z,28.98
2017-07-16T11:30:24.650Z,28.38
2017-07-16T11:32:56.435Z,28.00
2017-07-16T11:35:27.948Z,28.32
2017-07-16T11:37:59.484Z,28.34
2017-07-16T11:40:31.438Z,27.61
2017-07-16T11:43:03.401Z,27.14
2017-07-16T11:45:37.552Z,27.79
2017-07-16T11:48:09.270Z,27.93
2017-07-16T11:50:47.918Z,28.65
2017-07-16T11:53:19.863Z,27.79
2017-07-16T11:55:51.515Z,27.05
2017-07-16T11:58:23.180Z,26.30
2017-07-16T12:00:54.923Z,27.14
2017-07-16T12:03:27.037Z,28.04
2017-07-16T12:05:58.281Z,28.58
2017-07-16T12:08:30.147Z,28.08
2017-07-16T12:11:01.321Z,27.96
2017-07-16T12:13:32.849Z,27.39
2017-07-16T12:16:05.420Z,26.92
2017-07-16T12:18:39.121Z,27.58
2017-07-16T12:21:12.972Z,28.64
2017-07-16T12:23:44.631Z,28.86
2017-07-16T12:26:16.592Z,29.25
2017-07-16T12:28:49.727Z,28.61
2017-07-16T12:31:21.266Z,28.84
2017-07-16T12:33:54.036Z,29.16
2017-07-16T12:36:28.260Z,29.04
2017-07-16T12:38:59.801Z,29.40
2017-07-16T12:41:31.732Z,30.32
2017-07-16T12:44:03.016Z,30.81
2017-07-16T12:46:38.962Z,31.18
2017-07-16T12:49:10.714Z,30.05
2017-07-16T12:51:43.209Z,29.87
2017-07-16T12:54:14.803Z,30.01
2017-07-16T12:56:47.148Z,30.48
2017-07-16T12:59:18.646Z,28.76
2017-07-16T13:01:50.526Z,27.63
2017-07-16T13:04:22.125Z,26.85
2017-07-16T13:06:53.384Z,27.21
2017-07-16T13:09:25.144Z,28.72
2017-07-16T13:11:56.543Z,28.90
2017-07-16T13:14:28.220Z,28.62
2017-07-16T13:16:59.332Z,27.45
2017-07-16T13:19:30.730Z,28.09
2017-07-16T13:22:02.409Z,28.06
2017-07-16T13:24:33.726Z,27.35
2017-07-16T13:27:05.007Z,27.59
2017-07-16T13:29:38.548Z,28.27
2017-07-16T13:32:09.900Z,28.69
2017-07-16T13:34:43.196Z,27.67
2017-07-16T13:37:14.809Z,27.50
2017-07-16T13:39:46.151Z,26.97
2017-07-16T13:42:18.211Z,26.41
2017-07-16T13:44:50.304Z,27.09
2017-07-16T13:47:21.691Z,26.07
2017-07-16T13:49:53.829Z,26.07
2017-07-16T13:52:25.284Z,26.33
2017-07-16T13:54:56.598Z,26.30
2017-07-16T13:57:28.437Z,26.47
2017-07-16T13:59:59.835Z,26.32
2017-07-16T14:02:31.385Z,27.45
2017-07-16T14:05:02.763Z,26.83
2017-07-16T14:07:34.189Z,27.76
2017-07-16T14:10:06.150Z,28.17
2017-07-16T14:12:40.826Z,26.53
2017-07-16T14:15:12.370Z,27.07
2017-07-16T14:17:44.149Z,27.07
2017-07-16T14:20:16.613Z,27.13
2017-07-16T14:22:48.062Z,27.00
2017-07-16T14:25:20.017Z,26.61
2017-07-16T14:27:51.647Z,27.04
2017-07-16T14:30:23.939Z,27.64
2017-07-16T14:32:57.243Z,26.96
2017-07-16T14:35:29.161Z,26.54
2017-07-16T14:38:02.036Z,26.40
2017-07-16T14:40:33.710Z,26.13
2017-07-16T14:43:05.500Z,26.40
2017-07-16T14:45:37.103Z,26.58
2017-07-16T14:48:08.878Z,27.16
2017-07-16T14:50:43.763Z,27.08
2017-07-16T14:53:15.207Z,27.00
2017-07-16T14:55:46.975Z,27.16
2017-07-16T14:58:22.209Z,25.94
2017-07-16T15:00:53.712Z,26.26
2017-07-16T15:03:25.033Z,25.87
2017-07-16T15:05:57.657Z,25.35
2017-07-16T15:08:30.004Z,26.36
2017-07-16T15:11:01.768Z,26.74
2017-07-16T15:13:36.165Z,25.94
2017-07-16T15:16:07.843Z,25.96
2017-07-16T15:18:43.833Z,26.18
2017-07-16T15:21:15.501Z,26.59
2017-07-16T15:23:47.174Z,26.57
2017-07-16T15:26:20.155Z,26.45
2017-07-16T15:28:52.743Z,26.41
2017-07-16T15:31:24.574Z,26.91
2017-07-16T15:33:56.643Z,26.49
2017-07-16T15:36:28.025Z,26.89
2017-07-16T15:38:59.685Z,27.18
2017-07-16T15:41:30.995Z,27.93
2017-07-16T15:44:02.670Z,26.87
2017-07-16T15:46:34.449Z,27.19
2017-07-16T15:49:06.070Z,27.33
2017-07-16T15:51:37.465Z,27.22
2017-07-16T15:54:09.425Z,27.08
2017-07-16T15:56:44.629Z,26.81
2017-07-16T15:59:16.539Z,26.44
2017-07-16T16:01:47.721Z,26.40
2017-07-16T16:04:19.186Z,26.50
2017-07-16T16:06:51.107Z,26.07
2017-07-16T16:09:23.506Z,26.28
2017-07-16T16:11:54.957Z,25.83
2017-07-16T16:14:26.800Z,26.75
2017-07-16T16:16:58.140Z,26.02
2017-07-16T16:19:29.458Z,26.04
2017-07-16T16:22:02.203Z,26.24
2017-07-16T16:24:33.947Z,26.52
2017-07-16T16:27:05.998Z,26.35
2017-07-16T16:29:37.459Z,26.41
2017-07-16T16:32:09.151Z,26.14
2017-07-16T16:34:41.202Z,25.96
2017-07-16T16:37:13.402Z,26.27
2017-07-16T16:39:44.848Z,26.34
2017-07-16T16:42:17.110Z,26.63
2017-07-16T16:44:48.524Z,26.01
2017-07-16T16:47:19.958Z,26.67
2017-07-16T16:49:51.746Z,26.99
2017-07-16T16:52:23.029Z,26.96
2017-07-16T16:54:54.825Z,26.05
2017-07-16T16:57:26.707Z,25.69
2017-07-16T16:59:59.026Z,25.71
2017-07-16T17:02:31.729Z,25.97
2017-07-16T17:05:03.359Z,25.75
2017-07-16T17:07:34.814Z,25.17
2017-07-16T17:10:07.445Z,25.89
2017-07-16T17:12:39.164Z,25.57
2017-07-16T17:15:11.936Z,25.66
2017-07-16T17:17:43.513Z,25.66
2017-07-16T17:20:16.839Z,25.87
2017-07-16T17:22:49.518Z,26.22
2017-07-16T17:25:21.260Z,26.51
2017-07-16T17:27:53.194Z,25.73
2017-07-16T17:30:26.971Z,25.65
2017-07-16T17:32:58.944Z,25.81
2017-07-16T17:35:31.171Z,25.95
2017-07-16T17:38:02.476Z,26.27
2017-07-16T17:40:34.973Z,25.38
2017-07-16T17:43:06.576Z,25.21
2017-07-16T17:45:38.256Z,25.20
2017-07-16T17:48:09.904Z,25.52
2017-07-16T17:50:41.737Z,24.63
2017-07-16T17:53:13.327Z,24.88
2017-07-16T17:55:45.078Z,24.67
2017-07-16T17:58:16.849Z,24.85
2017-07-16T18:00:49.734Z,25.19
2017-07-16T18:03:21.804Z,25.66
2017-07-16T18:05:54.290Z,25.62
2017-07-16T18:08:27.634Z,25.32
2017-07-16T18:11:00.268Z,24.57
2017-07-16T18:13:31.960Z,24.44
2017-07-16T18:16:03.494Z,25.19
2017-07-16T18:18:35.154Z,25.53
2017-07-16T18:21:06.839Z,24.45
2017-07-16T18:23:38.446Z,24.36
2017-07-16T18:26:11.045Z,24.38
2017-07-16T18:28:43.286Z,24.70
2017-07-16T18:31:15.175Z,24.76
2017-07-16T18:33:46.776Z,24.74
2017-07-16T18:36:19.593Z,25.08
2017-07-16T18:38:51.545Z,25.31
2017-07-16T18:41:25.584Z,25.92
2017-07-16T18:43:56.907Z,25.79
2017-07-16T18:46:30.144Z,25.31
2017-07-16T18:49:01.571Z,25.46
2017-07-16T18:51:32.991Z,25.08
2017-07-16T18:54:04.994Z,24.88
2017-07-16T18:56:37.175Z,24.36
2017-07-16T18:59:10.794Z,25.08
2017-07-16T19:01:42.823Z,24.18
2017-07-16T19:04:15.078Z,24.71
2017-07-16T19:06:47.416Z,24.88
2017-07-16T19:09:21.134Z,25.23
2017-07-16T19:11:52.701Z,24.27
2017-07-16T19:14:24.067Z,24.59
2017-07-16T19:16:56.315Z,24.55
2017-07-16T19:19:29.463Z,24.50
2017-07-16T19:22:02.223Z,24.28
2017-07-16T19:24:34.151Z,24.39
2017-07-16T19:27:06.188Z,24.57
2017-07-16T19:29:37.679Z,24.89
2017-07-16T19:32:09.994Z,24.95
2017-07-16T19:34:41.714Z,24.90
2017-07-16T19:37:14.616Z,24.59
2017-07-16T19:39:46.404Z,24.32
2017-07-16T19:42:20.158Z,25.39
2017-07-16T19:44:52.084Z,25.88
2017-07-16T19:47:25.514Z,25.85
2017-07-16T19:49:57.596Z,25.98
2017-07-16T19:52:29.454Z,25.60
2017-07-16T19:55:02.684Z,25.54
2017-07-16T19:57:35.486Z,25.47
2017-07-16T20:00:07.608Z,25.62
2017-07-16T20:02:40.065Z,25.69
2017-07-16T20:05:12.595Z,25.65
2017-07-16T20:07:45.131Z,25.47
2017-07-16T20:10:19.037Z,25.39
2017-07-16T20:12:50.642Z,25.40
2017-07-16T20:15:24.585Z,25.49
2017-07-16T20:17:57.641Z,25.55
2017-07-16T20:20:29.249Z,25.42
2017-07-16T20:23:00.891Z,25.46
2017-07-16T20:25:32.171Z,24.89
2017-07-16T20:28:04.129Z,25.19
2017-07-16T20:30:35.336Z,24.58
2017-07-16T20:33:08.066Z,24.54
2017-07-16T20:35:39.929Z,24.47
2017-07-16T20:38:11.530Z,24.25
2017-07-16T20:40:44.293Z,24.48
2017-07-16T20:43:16.332Z,24.21
2017-07-16T20:45:49.059Z,24.27
2017-07-16T20:48:22.766Z,24.70
2017-07-16T20:50:54.656Z,24.33
2017-07-16T20:53:29.573Z,23.90
2017-07-16T20:56:01.841Z,24.09
2017-07-16T20:58:33.369Z,23.97
2017-07-16T21:01:05.367Z,24.43
2017-07-16T21:03:37.544Z,24.26
2017-07-16T21:06:10.100Z,24.26
2017-07-16T21:08:42.714Z,24.68
2017-07-16T21:11:15.178Z,24.59
2017-07-16T21:13:47.065Z,24.25
2017-07-16T21:16:21.139Z,24.01
2017-07-16T21:18:53.241Z,24.09
2017-07-16T21:21:25.675Z,23.80
2017-07-16T21:23:57.946Z,23.97
2017-07-16T21:26:30.787Z,23.85
2017-07-16T21:29:02.332Z,24.00
2017-07-16T21:31:34.667Z,23.86
2017-07-16T21:34:06.415Z,23.27
2017-07-16T21:36:38.075Z,22.92
2017-07-16T21:39:10.760Z,22.82
2017-07-16T21:41:42.830Z,22.56
2017-07-16T21:44:14.658Z,22.63
2017-07-16T21:46:46.798Z,22.96
2017-07-16T21:49:21.080Z,23.04
2017-07-16T21:51:53.763Z,23.49
2017-07-16T21:54:26.398Z,23.22
2017-07-16T21:56:58.138Z,23.25
2017-07-16T21:59:29.980Z,23.49
2017-07-16T22:02:02.505Z,23.67
2017-07-16T22:04:34.827Z,23.72
2017-07-16T22:07:06.194Z,23.87
2017-07-16T22:09:38.405Z,23.69
2017-07-16T22:12:10.567Z,23.39
2017-07-16T22:14:42.821Z,23.49
2017-07-16T22:17:14.524Z,23.24
2017-07-16T22:19:46.359Z,23.26
2017-07-16T22:22:19.454Z,23.09
2017-07-16T22:24:52.445Z,22.84
2017-07-16T22:27:27.934Z,22.51
2017-07-16T22:30:00.546Z,21.89
2017-07-16T22:32:33.026Z,21.80
2017-07-16T22:35:05.277Z,21.88
2017-07-16T22:37:36.933Z,22.06
2017-07-16T22:40:09.882Z,22.24
2017-07-16T22:42:41.187Z,22.16
2017-07-16T22:45:13.388Z,22.11
2017-07-16T22:47:44.618Z,22.09
2017-07-16T22:50:16.887Z,22.34
2017-07-16T22:52:50.006Z,22.19
2017-07-16T22:55:25.531Z,22.25
2017-07-16T22:57:57.305Z,22.13
2017-07-16T23:00:28.959Z,22.10
2017-07-16T23:03:00.651Z,22.00
2017-07-16T23:05:32.424Z,22.15
2017-07-16T23:08:04.008Z,22.14
2017-07-16T23:10:35.387Z,21.98
2017-07-16T23:13:10.043Z,22.10
2017-07-16T23:15:41.806Z,21.95
2017-07-16T23:18:13.127Z,21.94
2017-07-16T23:20:45.713Z,21.98
2017-07-16T23:23:17.244Z,21.97
2017-07-16T23:25:51.297Z,21.88
2017-07-16T23:28:25.890Z,21.65
2017-07-16T23:30:57.825Z,21.72
2017-07-16T23:33:29.490Z,21.70
2017-07-16T23:36:00.934Z,21.66
2017-07-16T23:38:32.637Z,21.64
2017-07-16T23:41:05.063Z,21.39
2017-07-16T23:43:36.620Z,21.51
2017-07-16T23:46:07.976Z,21.57
2017-07-16T23:48:39.626Z,21.68
2017-07-16T23:51:11.621Z,21.63
2017-07-16T23:53:43.253Z,21.62
2017-07-16T23:56:16.456Z,21.64
2017-07-16T23:58:47.989Z,21.24
